Hastings, Minnesota
Current Conditions -  °F | °C
As of 7:10 AM on Thursday 18 Dec 2014 (Local Time) from KSGS Reporting Station
Overcast Overcast  
Wind Chill: 19°   Ceiling: 1500
Heat Index: 19°   Visibility: 10mi
Dew Point: 15°   Wind: 0mph
Humidity: 86%   Direction: NA
Pressure: 30.3"   Gusts: NA
Location:  44.74°N, 92.85°W
Report Text: KSGS 181310Z AUTO 00000KT 10SM OVC015 M07/M09 A3030 RMK AO2 T10751095
Loading
Personal Weather Stations






























Interactive Weather Map New forecast layout! Learn more

10-Day Weather Forecast

Advertisements
Track Severe Weather on mobile